createdAt,value
2022-11-07T00:02:14.293Z,99.90
2022-11-07T00:04:41.150Z,99.90
2022-11-07T00:07:07.970Z,99.90
2022-11-07T00:09:34.637Z,99.90
2022-11-07T00:12:01.275Z,99.90
2022-11-07T00:14:27.932Z,99.90
2022-11-07T00:16:54.579Z,99.90
2022-11-07T00:19:21.415Z,99.90
2022-11-07T00:21:48.254Z,99.90
2022-11-07T00:24:15.303Z,99.90
2022-11-07T00:26:41.936Z,99.90
2022-11-07T00:29:12.097Z,99.90
2022-11-07T00:31:38.734Z,99.90
2022-11-07T00:34:05.409Z,99.90
2022-11-07T00:36:32.214Z,99.90
2022-11-07T00:38:58.931Z,99.90
2022-11-07T00:41:25.637Z,99.90
2022-11-07T00:43:52.465Z,99.90
2022-11-07T00:46:19.696Z,99.90
2022-11-07T00:48:46.473Z,99.90
2022-11-07T00:51:14.018Z,99.90
2022-11-07T00:53:41.204Z,99.90
2022-11-07T00:56:08.400Z,99.90
2022-11-07T00:58:35.376Z,99.90
2022-11-07T01:01:12.258Z,99.90
2022-11-07T01:03:57.357Z,99.90
2022-11-07T01:06:24.206Z,99.90
2022-11-07T01:08:51.763Z,99.90
2022-11-07T01:11:18.453Z,99.90
2022-11-07T01:13:45.160Z,99.90
2022-11-07T01:16:11.913Z,99.90
2022-11-07T01:18:38.616Z,99.90
2022-11-07T01:21:12.236Z,99.90
2022-11-07T01:23:42.858Z,99.90
2022-11-07T01:26:09.931Z,99.90
2022-11-07T01:28:36.761Z,99.90
2022-11-07T01:31:03.836Z,99.90
2022-11-07T01:33:31.128Z,99.90
2022-11-07T01:36:06.225Z,99.90
2022-11-07T01:38:33.124Z,99.90
2022-11-07T01:41:18.477Z,99.90
2022-11-07T01:44:00.250Z,99.90
2022-11-07T01:46:39.796Z,99.90
2022-11-07T01:49:13.551Z,99.90
2022-11-07T01:51:43.365Z,99.90
2022-11-07T01:54:09.999Z,99.90
2022-11-07T01:56:37.384Z,99.90
2022-11-07T01:59:04.072Z,99.90
2022-11-07T02:01:30.940Z,99.90
2022-11-07T02:03:57.680Z,99.90
2022-11-07T02:06:26.375Z,99.90
2022-11-07T02:08:53.224Z,99.90
2022-11-07T02:11:19.868Z,99.90
2022-11-07T02:13:46.618Z,99.90
2022-11-07T02:16:13.353Z,99.90
2022-11-07T02:18:40.288Z,99.90
2022-11-07T02:21:11.191Z,99.90
2022-11-07T02:23:44.273Z,99.90
2022-11-07T02:26:10.919Z,99.90
2022-11-07T02:28:37.611Z,99.90
2022-11-07T02:31:04.301Z,99.90
2022-11-07T02:33:31.011Z,99.90
2022-11-07T02:35:57.659Z,99.90
2022-11-07T02:38:31.022Z,99.90
2022-11-07T02:40:58.641Z,99.90
2022-11-07T02:43:26.217Z,99.90
2022-11-07T02:45:52.878Z,99.90
2022-11-07T02:48:19.604Z,99.90
2022-11-07T02:50:46.284Z,99.90
2022-11-07T02:53:13.368Z,99.90
2022-11-07T02:55:40.262Z,99.90
2022-11-07T02:58:06.934Z,99.90
2022-11-07T03:00:33.574Z,99.90
2022-11-07T03:03:00.240Z,99.90
2022-11-07T03:05:26.938Z,99.90
2022-11-07T03:07:53.607Z,99.90
2022-11-07T03:10:20.343Z,99.90
2022-11-07T03:12:52.116Z,99.90
2022-11-07T03:15:18.815Z,99.90
2022-11-07T03:17:45.480Z,99.90
2022-11-07T03:20:12.788Z,99.90
2022-11-07T03:22:39.844Z,99.90
2022-11-07T03:25:06.875Z,99.90
2022-11-07T03:27:33.618Z,99.90
2022-11-07T03:30:00.311Z,99.90
2022-11-07T03:32:27.012Z,99.90
2022-11-07T03:34:53.690Z,99.90
2022-11-07T03:37:20.332Z,99.90
2022-11-07T03:39:47.062Z,99.90
2022-11-07T03:42:13.784Z,99.90
2022-11-07T03:44:40.617Z,99.90
2022-11-07T03:47:07.248Z,99.90
2022-11-07T03:49:33.939Z,99.90
2022-11-07T03:52:00.583Z,99.90
2022-11-07T03:54:27.257Z,99.90
2022-11-07T03:56:53.892Z,99.90
2022-11-07T03:59:20.570Z,99.90
2022-11-07T04:01:47.358Z,99.90
2022-11-07T04:04:14.195Z,99.90
2022-11-07T04:06:40.914Z,99.90
2022-11-07T04:09:07.636Z,99.90
2022-11-07T04:11:52.773Z,99.90
2022-11-07T04:14:38.152Z,99.90
2022-11-07T04:17:20.932Z,99.90
2022-11-07T04:19:48.073Z,99.90
2022-11-07T04:22:14.864Z,99.90
2022-11-07T04:24:45.732Z,99.90
2022-11-07T04:27:31.589Z,99.90
2022-11-07T04:29:58.252Z,99.90
2022-11-07T04:32:24.964Z,99.90
2022-11-07T04:34:51.875Z,99.90
2022-11-07T04:37:18.547Z,99.90
2022-11-07T04:39:45.204Z,99.90
2022-11-07T04:42:11.855Z,99.90
2022-11-07T04:44:38.519Z,99.90
2022-11-07T04:47:05.196Z,99.90
2022-11-07T04:49:31.846Z,99.90
2022-11-07T04:51:58.533Z,99.90
2022-11-07T04:54:25.176Z,99.90
2022-11-07T04:56:51.882Z,99.90
2022-11-07T04:59:18.545Z,99.90
2022-11-07T05:01:45.286Z,99.90
2022-11-07T05:04:11.966Z,99.90
2022-11-07T05:06:38.731Z,99.90
2022-11-07T05:09:05.466Z,99.90
2022-11-07T05:11:32.128Z,99.90
2022-11-07T05:13:58.783Z,99.90
2022-11-07T05:16:25.475Z,99.90
2022-11-07T05:18:52.146Z,99.90
2022-11-07T05:21:18.854Z,99.90
2022-11-07T05:23:45.595Z,99.90
2022-11-07T05:26:12.311Z,99.90
2022-11-07T05:28:39.941Z,99.90
2022-11-07T05:31:07.106Z,99.90
2022-11-07T05:33:33.890Z,99.90
2022-11-07T05:36:09.757Z,99.90
2022-11-07T05:38:36.650Z,99.90
2022-11-07T05:41:03.847Z,99.90
2022-11-07T05:43:30.512Z,99.90
2022-11-07T05:46:00.187Z,99.90
2022-11-07T05:48:26.888Z,99.90
2022-11-07T05:50:53.538Z,99.90
2022-11-07T05:53:23.052Z,99.90
2022-11-07T05:55:49.720Z,99.90
2022-11-07T05:58:16.399Z,99.90
2022-11-07T06:00:43.119Z,99.90
2022-11-07T06:03:09.953Z,99.90
2022-11-07T06:05:37.405Z,99.90
2022-11-07T06:08:04.311Z,99.90
2022-11-07T06:10:31.065Z,99.90
2022-11-07T06:13:01.310Z,99.90
2022-11-07T06:15:28.234Z,99.90
2022-11-07T06:17:54.968Z,99.90
2022-11-07T06:20:21.686Z,99.90
2022-11-07T06:22:48.370Z,99.90
2022-11-07T06:25:15.179Z,99.90
2022-11-07T06:27:41.887Z,99.90
2022-11-07T06:30:08.861Z,99.90
2022-11-07T06:32:36.575Z,99.90
2022-11-07T06:35:03.362Z,99.90
2022-11-07T06:37:30.067Z,99.90
2022-11-07T06:39:56.764Z,99.90
2022-11-07T06:42:25.139Z,99.90
2022-11-07T06:44:51.811Z,99.90
2022-11-07T06:47:18.451Z,99.90
2022-11-07T06:49:45.111Z,99.90
2022-11-07T06:52:11.768Z,99.90
2022-11-07T06:54:38.419Z,99.90
2022-11-07T06:57:05.098Z,99.90
2022-11-07T06:59:31.786Z,99.90
2022-11-07T07:01:58.498Z,99.90
2022-11-07T07:04:25.229Z,99.90
2022-11-07T07:06:51.900Z,99.90
2022-11-07T07:09:18.576Z,99.90
2022-11-07T07:11:45.417Z,99.90
2022-11-07T07:14:12.377Z,99.90
2022-11-07T07:16:39.064Z,99.90
2022-11-07T07:19:05.819Z,99.90
2022-11-07T07:21:33.097Z,99.90
2022-11-07T07:23:59.822Z,99.90
2022-11-07T07:26:26.534Z,99.90
2022-11-07T07:28:53.169Z,99.90
2022-11-07T07:31:23.930Z,99.90
2022-11-07T07:33:50.623Z,99.90
2022-11-07T07:36:20.711Z,99.90
2022-11-07T07:38:48.277Z,99.90
2022-11-07T07:41:14.959Z,99.90
2022-11-07T07:43:41.650Z,99.90
2022-11-07T07:46:08.439Z,99.90
2022-11-07T07:48:35.198Z,99.90
2022-11-07T07:51:01.986Z,99.90
2022-11-07T07:53:28.748Z,99.90
2022-11-07T07:55:56.644Z,99.90
2022-11-07T07:58:23.464Z,99.90
2022-11-07T08:00:53.355Z,99.90
2022-11-07T08:03:20.124Z,99.90
2022-11-07T08:05:51.666Z,99.60
2022-11-07T08:08:18.326Z,98.80
2022-11-07T08:10:45.971Z,97.40
2022-11-07T08:13:12.668Z,97.00
2022-11-07T08:15:39.468Z,95.90
2022-11-07T08:18:06.421Z,96.00
2022-11-07T08:20:33.104Z,96.40
2022-11-07T08:23:03.631Z,97.20
2022-11-07T08:25:30.404Z,97.70
2022-11-07T08:27:57.111Z,99.00
2022-11-07T08:30:23.791Z,98.50
2022-11-07T08:32:50.468Z,97.80
2022-11-07T08:35:17.224Z,97.30
2022-11-07T08:37:43.910Z,97.30
2022-11-07T08:40:10.998Z,97.80
2022-11-07T08:42:37.635Z,98.00
2022-11-07T08:45:04.480Z,98.20
2022-11-07T08:47:31.145Z,98.60
2022-11-07T08:49:57.823Z,98.40
2022-11-07T08:52:24.492Z,98.60
2022-11-07T08:54:51.116Z,98.10
2022-11-07T08:57:17.796Z,98.10
2022-11-07T08:59:44.464Z,97.90
2022-11-07T09:04:58.483Z,96.90
2022-11-07T09:07:25.147Z,96.90
2022-11-07T09:09:51.814Z,94.20
2022-11-07T09:12:18.516Z,92.90
2022-11-07T09:14:45.180Z,92.80
2022-11-07T09:17:11.944Z,93.30
2022-11-07T09:19:38.631Z,93.40
2022-11-07T09:22:05.329Z,93.80
2022-11-07T09:24:31.981Z,93.10
2022-11-07T09:26:58.647Z,92.90
2022-11-07T09:29:25.388Z,92.60
2022-11-07T09:31:52.040Z,92.10
2022-11-07T09:34:18.745Z,91.60
2022-11-07T09:36:45.396Z,91.30
2022-11-07T09:39:12.056Z,91.20
2022-11-07T09:41:44.896Z,91.50
2022-11-07T09:44:31.001Z,92.10
2022-11-07T09:47:28.593Z,91.60
2022-11-07T09:49:58.540Z,92.00
2022-11-07T09:52:31.729Z,92.40
2022-11-07T09:54:59.693Z,92.50
2022-11-07T09:57:27.509Z,91.80
2022-11-07T09:59:55.223Z,91.60
2022-11-07T10:02:24.009Z,91.30
2022-11-07T10:04:53.292Z,91.20
2022-11-07T10:07:28.919Z,91.60
2022-11-07T10:09:55.547Z,91.30
2022-11-07T10:12:44.818Z,90.80
2022-11-07T10:15:11.870Z,90.80
2022-11-07T10:17:41.541Z,90.90
2022-11-07T10:20:08.246Z,90.90
2022-11-07T10:22:53.423Z,90.90
2022-11-07T10:25:37.835Z,91.30
2022-11-07T10:28:07.658Z,91.50
2022-11-07T10:30:34.584Z,91.70
2022-11-07T10:33:07.370Z,91.90
2022-11-07T10:35:34.313Z,92.10
2022-11-07T10:38:01.692Z,92.00
2022-11-07T10:40:38.585Z,92.10
2022-11-07T10:43:06.310Z,92.30
2022-11-07T10:45:33.017Z,90.40
2022-11-07T10:48:00.632Z,91.20
2022-11-07T10:50:27.406Z,90.30
2022-11-07T10:52:57.977Z,90.50
2022-11-07T10:55:24.747Z,90.60
2022-11-07T10:57:52.923Z,90.90
2022-11-07T11:00:23.383Z,89.90
2022-11-07T11:02:50.249Z,88.20
2022-11-07T11:05:23.223Z,88.80
2022-11-07T11:07:49.952Z,88.30
2022-11-07T11:10:20.942Z,90.00
2022-11-07T11:12:48.136Z,90.10
2022-11-07T11:15:14.802Z,90.40
2022-11-07T11:17:41.521Z,90.70
2022-11-07T11:20:28.391Z,90.00
2022-11-07T11:22:55.155Z,89.40
2022-11-07T11:25:22.000Z,89.50
2022-11-07T11:27:49.016Z,89.80
2022-11-07T11:30:16.572Z,90.30
2022-11-07T11:32:53.528Z,90.40
2022-11-07T11:35:23.227Z,90.20
2022-11-07T11:37:57.981Z,90.10
2022-11-07T11:40:24.663Z,90.00
2022-11-07T11:42:53.444Z,89.40
2022-11-07T11:45:39.991Z,87.50
2022-11-07T11:48:09.662Z,87.90
2022-11-07T11:50:41.567Z,87.40
2022-11-07T11:53:08.671Z,88.80
2022-11-07T11:55:38.271Z,89.70
2022-11-07T11:58:23.479Z,90.20
2022-11-07T12:00:54.365Z,88.60
2022-11-07T12:03:27.338Z,88.20
2022-11-07T12:05:59.708Z,87.90
2022-11-07T12:08:45.146Z,87.80
2022-11-07T12:11:20.854Z,88.90
2022-11-07T12:13:51.231Z,88.80
2022-11-07T12:16:21.116Z,89.90
2022-11-07T12:18:53.861Z,89.70
2022-11-07T12:21:33.577Z,90.20
2022-11-07T12:24:03.068Z,90.40
2022-11-07T12:26:41.601Z,90.50
2022-11-07T12:29:31.611Z,90.40
2022-11-07T12:31:58.299Z,90.10
2022-11-07T12:34:24.968Z,90.10
2022-11-07T12:37:05.221Z,90.20
2022-11-07T12:39:47.008Z,90.00
2022-11-07T12:42:13.741Z,90.10
2022-11-07T12:45:01.992Z,89.90
2022-11-07T12:47:48.398Z,88.80
2022-11-07T12:50:15.144Z,89.10
2022-11-07T12:52:47.967Z,89.90
2022-11-07T12:55:19.808Z,89.90
2022-11-07T12:57:46.807Z,90.10
2022-11-07T13:00:21.309Z,90.40
2022-11-07T13:02:57.369Z,90.20
2022-11-07T13:05:36.228Z,90.10
2022-11-07T13:08:34.946Z,89.80
2022-11-07T13:11:04.188Z,88.80
2022-11-07T13:13:37.068Z,88.70
2022-11-07T13:16:15.982Z,89.60
2022-11-07T13:18:42.921Z,87.90
2022-11-07T13:21:09.873Z,89.20
2022-11-07T13:23:36.583Z,90.10
2022-11-07T13:26:15.094Z,90.50
2022-11-07T13:29:00.665Z,90.30
2022-11-07T13:31:34.542Z,90.30
2022-11-07T13:34:19.355Z,90.20
2022-11-07T13:36:46.581Z,90.10
2022-11-07T13:39:13.328Z,90.00
2022-11-07T13:41:40.152Z,87.50
2022-11-07T13:44:07.855Z,88.00
2022-11-07T13:46:39.273Z,88.50
2022-11-07T13:49:15.313Z,87.90
2022-11-07T13:51:43.057Z,89.20
2022-11-07T13:54:30.595Z,90.00
2022-11-07T13:56:59.798Z,89.90
2022-11-07T13:59:26.534Z,89.70
2022-11-07T14:01:57.615Z,88.90
2022-11-07T14:04:26.548Z,88.20
2022-11-07T14:06:55.688Z,88.20
2022-11-07T14:09:22.367Z,88.90
2022-11-07T14:11:49.753Z,89.80
2022-11-07T14:14:16.409Z,90.40
2022-11-07T14:16:46.185Z,90.70
2022-11-07T14:19:17.545Z,91.10
2022-11-07T14:21:45.134Z,91.00
2022-11-07T14:24:25.164Z,90.80
2022-11-07T14:26:58.452Z,90.50
2022-11-07T14:29:25.126Z,87.90
2022-11-07T14:31:51.817Z,87.50
2022-11-07T14:34:19.383Z,88.10
2022-11-07T14:36:53.720Z,88.40
2022-11-07T14:39:20.656Z,88.10
2022-11-07T14:41:47.389Z,89.20
2022-11-07T14:44:28.419Z,88.80
2022-11-07T14:47:03.528Z,86.70
2022-11-07T14:49:36.271Z,88.20
2022-11-07T14:52:02.956Z,88.70
2022-11-07T14:54:39.390Z,88.50
2022-11-07T14:57:07.116Z,87.50
2022-11-07T14:59:35.566Z,87.30
2022-11-07T15:02:05.129Z,86.30
2022-11-07T15:04:34.737Z,87.50
2022-11-07T15:07:11.413Z,88.20
2022-11-07T15:09:38.188Z,88.50
2022-11-07T15:12:07.136Z,89.10
2022-11-07T15:14:34.675Z,88.50
2022-11-07T15:17:04.119Z,88.30
2022-11-07T15:19:31.664Z,88.10
2022-11-07T15:22:00.761Z,88.30
2022-11-07T15:24:46.209Z,88.40
2022-11-07T15:27:23.085Z,89.00
2022-11-07T15:29:53.676Z,89.20
2022-11-07T15:32:21.255Z,90.10
2022-11-07T15:35:17.013Z,91.50
2022-11-07T15:37:38.399Z,90.90
2022-11-07T15:40:31.165Z,91.70
2022-11-07T15:42:57.858Z,92.30
2022-11-07T15:45:24.520Z,91.10
2022-11-07T15:47:51.219Z,91.40
2022-11-07T15:50:22.230Z,92.30
2022-11-07T15:52:49.088Z,92.40
2022-11-07T15:55:16.700Z,92.60
2022-11-07T15:57:43.440Z,92.50
2022-11-07T16:00:16.578Z,92.80
2022-11-07T16:02:43.536Z,92.30
2022-11-07T16:05:10.661Z,92.30
2022-11-07T16:07:37.376Z,92.50
2022-11-07T16:10:05.205Z,91.90
2022-11-07T16:12:31.903Z,92.60
2022-11-07T16:14:59.362Z,92.80
2022-11-07T16:17:26.050Z,92.70
2022-11-07T16:19:56.236Z,92.90
2022-11-07T16:22:25.423Z,92.60
2022-11-07T16:24:52.089Z,93.30
2022-11-07T16:27:18.834Z,93.70
2022-11-07T16:29:45.617Z,94.20
2022-11-07T16:32:16.576Z,94.60
2022-11-07T16:34:44.481Z,94.50
2022-11-07T16:37:11.592Z,94.50
2022-11-07T16:39:38.301Z,94.60
2022-11-07T16:42:05.001Z,94.40
2022-11-07T16:44:31.744Z,93.80
2022-11-07T16:46:58.624Z,93.10
2022-11-07T16:49:32.543Z,93.00
2022-11-07T16:51:59.317Z,93.50
2022-11-07T16:54:26.062Z,94.20
2022-11-07T16:56:52.918Z,95.00
2022-11-07T16:59:20.510Z,95.50
2022-11-07T17:01:47.411Z,95.40
2022-11-07T17:04:14.563Z,95.70
2022-11-07T17:06:46.972Z,95.90
2022-11-07T17:09:16.726Z,96.30
2022-11-07T17:11:43.920Z,96.90
2022-11-07T17:14:10.577Z,96.90
2022-11-07T17:16:37.543Z,98.00
2022-11-07T17:19:05.043Z,98.50
2022-11-07T17:21:32.584Z,99.30
2022-11-07T17:23:59.972Z,99.90
2022-11-07T17:26:35.094Z,99.90
2022-11-07T17:29:01.905Z,99.90
2022-11-07T17:31:28.561Z,99.90
2022-11-07T17:33:55.263Z,99.90
2022-11-07T17:36:23.799Z,99.90
2022-11-07T17:38:51.335Z,99.90
2022-11-07T17:41:18.072Z,99.90
2022-11-07T17:43:45.255Z,99.90
2022-11-07T17:46:13.071Z,99.90
2022-11-07T17:48:44.745Z,99.90
2022-11-07T17:51:14.140Z,99.90
2022-11-07T17:53:40.867Z,99.90
2022-11-07T17:56:09.831Z,99.90
2022-11-07T17:58:36.504Z,99.90
2022-11-07T18:01:04.883Z,99.90
2022-11-07T18:03:31.561Z,99.90
2022-11-07T18:05:58.237Z,99.90
2022-11-07T18:08:46.299Z,99.90
2022-11-07T18:11:11.693Z,99.90
2022-11-07T18:13:38.479Z,99.90
2022-11-07T18:16:11.785Z,99.90
2022-11-07T18:18:38.478Z,99.90
2022-11-07T18:21:05.756Z,99.90
2022-11-07T18:23:32.431Z,99.90
2022-11-07T18:26:05.985Z,99.90
2022-11-07T18:28:32.740Z,99.90
2022-11-07T18:31:06.294Z,99.90
2022-11-07T18:33:33.018Z,99.90
2022-11-07T18:36:00.128Z,99.90
2022-11-07T18:38:27.145Z,99.90
2022-11-07T18:41:04.012Z,99.90
2022-11-07T18:43:30.670Z,99.90
2022-11-07T18:45:57.497Z,99.90
2022-11-07T18:48:24.201Z,99.90
2022-11-07T18:50:50.927Z,99.90
2022-11-07T18:53:17.727Z,99.90
2022-11-07T18:55:44.414Z,99.90
2022-11-07T18:58:11.147Z,99.90
2022-11-07T19:00:37.871Z,99.90
2022-11-07T19:03:04.688Z,99.90
2022-11-07T19:05:31.335Z,99.90
2022-11-07T19:07:58.617Z,99.90
2022-11-07T19:10:25.449Z,99.90
2022-11-07T19:12:52.391Z,99.90
2022-11-07T19:15:21.020Z,99.90
2022-11-07T19:17:47.760Z,99.90
2022-11-07T19:20:14.488Z,99.90
2022-11-07T19:22:41.172Z,99.90
2022-11-07T19:25:09.446Z,99.90
2022-11-07T19:27:36.153Z,99.90
2022-11-07T19:30:03.237Z,99.90
2022-11-07T19:32:30.020Z,99.90
2022-11-07T19:34:56.727Z,99.90
2022-11-07T19:37:23.386Z,99.90
2022-11-07T19:39:50.079Z,99.90
2022-11-07T19:42:16.753Z,99.90
2022-11-07T19:44:49.416Z,99.90
2022-11-07T19:47:18.347Z,99.90
2022-11-07T19:49:44.984Z,99.90
2022-11-07T19:52:11.927Z,99.90
2022-11-07T19:54:38.817Z,99.90
2022-11-07T19:57:06.135Z,99.90
2022-11-07T19:59:32.797Z,99.90
2022-11-07T20:02:30.516Z,99.90
2022-11-07T20:04:46.895Z,99.90
2022-11-07T20:07:13.968Z,99.90
2022-11-07T20:09:41.024Z,99.90
2022-11-07T20:12:07.746Z,99.90
2022-11-07T20:14:34.402Z,99.90
2022-11-07T20:17:01.160Z,99.90
2022-11-07T20:19:29.890Z,99.90
2022-11-07T20:21:56.544Z,99.90
2022-11-07T20:24:23.292Z,99.90
2022-11-07T20:26:49.979Z,99.90
2022-11-07T20:29:18.536Z,99.90
2022-11-07T20:31:45.305Z,99.90
2022-11-07T20:34:12.791Z,99.90
2022-11-07T20:36:40.082Z,99.90
2022-11-07T20:39:07.298Z,99.90
2022-11-07T20:41:34.374Z,99.90
2022-11-07T20:44:03.865Z,99.90
2022-11-07T20:46:34.860Z,99.90
2022-11-07T20:49:01.666Z,99.90
2022-11-07T20:51:28.334Z,99.90
2022-11-07T20:53:55.122Z,99.90
2022-11-07T20:56:22.344Z,99.90
2022-11-07T20:58:49.006Z,99.90
2022-11-07T21:01:16.678Z,99.90
2022-11-07T21:03:44.184Z,99.90
2022-11-07T21:06:13.520Z,99.90
2022-11-07T21:08:41.092Z,99.90
2022-11-07T21:11:07.801Z,99.90
2022-11-07T21:13:34.591Z,99.90
2022-11-07T21:16:01.436Z,99.90
2022-11-07T21:18:28.106Z,99.90
2022-11-07T21:20:54.787Z,99.90
2022-11-07T21:23:21.615Z,99.90
2022-11-07T21:25:48.531Z,99.90
2022-11-07T21:28:19.016Z,99.90
2022-11-07T21:30:46.064Z,99.90
2022-11-07T21:33:12.754Z,99.90
2022-11-07T21:35:42.669Z,99.90
2022-11-07T21:38:09.352Z,99.90
2022-11-07T21:40:36.202Z,99.90
2022-11-07T21:43:03.563Z,99.90
2022-11-07T21:45:30.224Z,99.90
2022-11-07T21:47:56.846Z,99.90
2022-11-07T21:50:43.406Z,99.90
2022-11-07T21:53:10.235Z,99.90
2022-11-07T21:55:36.906Z,99.90
2022-11-07T21:58:03.589Z,99.90
2022-11-07T22:00:35.554Z,99.90
2022-11-07T22:03:03.106Z,99.90
2022-11-07T22:05:29.781Z,99.90
2022-11-07T22:07:56.563Z,99.90
2022-11-07T22:10:23.265Z,99.90
2022-11-07T22:12:52.302Z,99.90
2022-11-07T22:15:18.973Z,99.90
2022-11-07T22:17:45.659Z,99.90
2022-11-07T22:20:12.436Z,99.90
2022-11-07T22:22:39.079Z,99.90
2022-11-07T22:25:06.461Z,99.90
2022-11-07T22:27:33.121Z,99.90
2022-11-07T22:29:59.811Z,99.90
2022-11-07T22:32:26.501Z,99.90
2022-11-07T22:34:53.166Z,99.90
2022-11-07T22:37:19.830Z,99.90
2022-11-07T22:39:46.497Z,99.90
2022-11-07T22:42:13.231Z,99.90
2022-11-07T22:44:39.858Z,99.90
2022-11-07T22:47:06.621Z,99.90
2022-11-07T22:49:33.839Z,99.90
2022-11-07T22:52:00.533Z,99.90
2022-11-07T22:54:27.165Z,99.90
2022-11-07T22:56:53.850Z,99.90
2022-11-07T22:59:20.508Z,99.90
2022-11-07T23:01:47.229Z,99.90
2022-11-07T23:04:14.699Z,99.90
2022-11-07T23:06:41.316Z,99.90
2022-11-07T23:09:08.080Z,99.90
2022-11-07T23:11:50.561Z,99.90
2022-11-07T23:14:17.993Z,99.90
2022-11-07T23:16:45.588Z,99.90
2022-11-07T23:19:13.081Z,99.90
2022-11-07T23:21:39.803Z,99.90
2022-11-07T23:24:06.622Z,99.90
2022-11-07T23:26:36.543Z,99.90
2022-11-07T23:29:10.886Z,99.90
2022-11-07T23:31:41.015Z,99.90
2022-11-07T23:34:07.872Z,99.90
2022-11-07T23:36:34.584Z,99.90
2022-11-07T23:39:05.038Z,99.90
2022-11-07T23:41:31.696Z,99.90
2022-11-07T23:43:58.774Z,99.90
2022-11-07T23:46:44.109Z,99.90
2022-11-07T23:49:29.210Z,99.90
2022-11-07T23:51:59.505Z,99.90
2022-11-07T23:54:44.872Z,99.90
2022-11-07T23:57:11.531Z,99.90
2022-11-07T23:59:56.750Z,99.90
